| |
Missouri Department of Transportation

Social Media Facebook Twitter Flickr Instagram YouTube RSS

Current METAR Information for All MoDOT Locations 
AWOS Home
Current METAR for all Airports
Glossary - Disclaimer


Location Current METAR Record
Boonville METAR KVER 221905Z AUTO 30009KT 10SM SCT017 BKN025 OVC032 22/19 A2981 RMK AO2 T02180189
Branson METAR KBBG 221905Z AUTO 30010KT 10SM CLR 25/17 A2985 RMK AO2
Branson West METAR KFWB 221900Z AUTO 28006KT 240V300 10SM FEW036 BKN042 25/17 A2986 RMK AO2
Camdenton METAR KOZS 221905Z AUTO 29012G17KT 10SM SCT025 SCT031 OVC050 25/16 A2982 RMK AO2
Clinton METAR KGLY 221835Z AUTO 29009KT 10SM BKN049 24/19 A2984 RMK AO2
Hannibal METAR KHAE 221850Z AUTO 30008KT 10SM OVC014 20/16 A2979 RMK AO2
Harrisonville METAR KLRY 221905Z AUTO 34006KT 10SM SCT022 BKN029 OVC042 24/17 A2987 RMK AO2
Lebanon METAR KLBO 221905Z AUTO 33007KT 293V003 10SM SCT024 SCT033 25/19 A2983 RMK AO2
Malden METAR KMAW 221915Z AUTO 26011G15KT 10SM CLR 27/16 A2976 RMK AO2
Marshall METAR KMHL 221920Z AUTO 00000KT 10SM SCT019 BKN037 23/18 A2983 RMK AO2
Maryville METAR KEVU 221904Z AUTO 35004KT 10SM SCT013 BKN018 BKN024 21/13 A2986 RMK AO2
Mexico METAR KMYJ 221905Z AUTO 30008G14KT 2SM BR BKN006 OVC010 18/17 A2981 RMK AO2
Moberly METAR KMBY 221909Z AUTO 28008KT 2 1/2SM -RA OVC008 18/16 A2982 RMK AO2
Mosby METAR KGPH 221914Z AUTO 28004KT 10SM BKN021 OVC031 21/16 A2985 RMK AO2
Sikeston METAR KSIK 221930Z AUTO 25010G14KT 10SM CLR 26/18 A2974 RMK AO2
Warrensburg METAR KRCM 221910Z AUTO 29006G15KT 10SM BKN024 BKN030 OVC042 21/16 A2984 RMK AO2
Warsaw METAR KRAW 221908Z AUTO 32005KT 10SM SCT038 SCT045 A2984 RMK AO2
Washington METAR KFYG 221840Z AUTO 31012KT 10SM SCT017 SCT026 BKN050 22/19 A2975 RMK AO2
About Us
How Do I...
Contact Us
Missouri Department of Transportation
Central Office
105 W. Capitol Avenue
Jefferson City, MO 65102
1-888-ASK-MODOT (275-6636)
1-866-831-6277 (Motor Carrier Services)
Driver's License Offices
horz_bar
| | |
Missouri State Government
© 2013 Missouri Department of Transportation. All Rights Reserved.   Privacy Policy.
 
 
 
 
RSS FeedYoutubeBlogFlickrTwitter Facebook